createdAt,value
2023-05-20T00:00:27.342Z,79.42
2023-05-20T00:05:29.425Z,79.82
2023-05-20T00:10:31.392Z,81.15
2023-05-20T00:15:35.486Z,81.51
2023-05-20T00:20:38.016Z,82.00
2023-05-20T00:25:40.268Z,82.07
2023-05-20T00:30:44.210Z,82.51
2023-05-20T00:35:46.204Z,82.19
2023-05-20T00:40:48.230Z,82.23
2023-05-20T00:45:52.350Z,82.67
2023-05-20T00:50:54.625Z,83.62
2023-05-20T00:55:57.038Z,83.95
2023-05-20T01:01:00.583Z,84.10
2023-05-20T01:06:02.715Z,84.95
2023-05-20T01:11:09.042Z,85.11
2023-05-20T01:16:15.353Z,85.60
2023-05-20T01:21:17.632Z,85.54
2023-05-20T01:26:20.829Z,85.98
2023-05-20T01:31:26.085Z,85.92
2023-05-20T01:36:29.272Z,86.22
2023-05-20T01:41:33.710Z,86.49
2023-05-20T01:46:35.979Z,86.70
2023-05-20T01:51:38.223Z,87.36
2023-05-20T01:56:41.769Z,88.22
2023-05-20T02:01:43.923Z,87.94
2023-05-20T02:06:45.706Z,88.02
2023-05-20T02:11:49.180Z,88.14
2023-05-20T02:16:51.396Z,88.16
2023-05-20T02:21:53.799Z,87.87
2023-05-20T02:26:56.929Z,87.36
2023-05-20T02:31:58.748Z,87.15
2023-05-20T02:37:00.943Z,87.00
2023-05-20T02:42:04.280Z,86.60
2023-05-20T02:47:06.432Z,86.38
2023-05-20T02:52:08.663Z,86.03
2023-05-20T02:57:12.147Z,86.53
2023-05-20T03:02:14.147Z,86.55
2023-05-20T03:07:16.250Z,86.28
2023-05-20T03:12:19.577Z,85.60
2023-05-20T03:17:21.770Z,86.01
2023-05-20T03:22:24.109Z,85.74
2023-05-20T03:27:27.752Z,85.69
2023-05-20T03:32:30.026Z,86.11
2023-05-20T03:37:32.562Z,86.12
2023-05-20T03:42:36.553Z,85.75
2023-05-20T03:47:38.788Z,85.54
2023-05-20T03:52:41.126Z,86.10
2023-05-20T03:57:44.693Z,85.06
2023-05-20T04:02:46.624Z,85.04
2023-05-20T04:07:49.080Z,84.97
2023-05-20T04:12:53.189Z,84.88
2023-05-20T04:17:55.126Z,84.79
2023-05-20T04:22:57.669Z,84.90
2023-05-20T04:28:01.388Z,84.99
2023-05-20T04:33:03.600Z,84.56
2023-05-20T04:38:06.036Z,84.26
2023-05-20T04:43:09.413Z,84.31
2023-05-20T04:48:11.720Z,83.57
2023-05-20T04:53:13.532Z,84.18
2023-05-20T04:58:17.279Z,83.71
2023-05-20T05:03:19.900Z,83.36
2023-05-20T05:08:22.071Z,83.79
2023-05-20T05:13:26.338Z,83.57
2023-05-20T05:18:28.115Z,83.30
2023-05-20T05:23:31.012Z,83.63
2023-05-20T05:28:34.171Z,82.51
2023-05-20T05:33:35.971Z,83.37
2023-05-20T05:38:37.696Z,82.47
2023-05-20T05:43:40.762Z,83.04
2023-05-20T05:48:42.723Z,82.30
2023-05-20T05:53:44.986Z,81.78
2023-05-20T05:58:48.098Z,81.28
2023-05-20T06:03:49.969Z,80.76
2023-05-20T06:08:52.049Z,80.69
2023-05-20T06:13:55.564Z,81.22
2023-05-20T06:18:57.892Z,81.61
2023-05-20T06:24:00.632Z,81.40
2023-05-20T06:29:04.064Z,81.60
2023-05-20T06:34:05.905Z,81.29
2023-05-20T06:39:07.820Z,81.26
2023-05-20T06:44:10.912Z,80.57
2023-05-20T06:49:12.696Z,81.81
2023-05-20T06:54:14.475Z,81.91
2023-05-20T06:59:18.375Z,81.78
2023-05-20T07:04:20.548Z,80.73
2023-05-20T07:09:22.930Z,80.54
2023-05-20T07:14:26.137Z,79.78
2023-05-20T07:19:28.373Z,78.64
2023-05-20T07:24:30.599Z,77.49
2023-05-20T07:29:34.303Z,77.42
2023-05-20T07:34:36.412Z,78.55
2023-05-20T07:39:38.372Z,77.71
2023-05-20T07:44:42.004Z,76.56
2023-05-20T07:49:43.721Z,73.89
2023-05-20T07:54:45.882Z,74.68
2023-05-20T07:59:49.721Z,73.83
2023-05-20T08:04:52.012Z,73.92
2023-05-20T08:09:53.848Z,72.98
2023-05-20T08:14:57.220Z,72.29
2023-05-20T08:19:59.154Z,70.78
2023-05-20T08:25:01.485Z,69.33
2023-05-20T08:30:06.277Z,69.06
2023-05-20T08:35:08.588Z,67.42
2023-05-20T08:40:12.234Z,67.79
2023-05-20T08:45:19.211Z,67.83
2023-05-20T08:50:21.780Z,67.41
2023-05-20T08:55:25.972Z,68.45
2023-05-20T09:00:30.251Z,68.49
2023-05-20T09:05:32.464Z,70.16
2023-05-20T09:10:35.794Z,69.87
2023-05-20T09:15:39.915Z,69.03
2023-05-20T09:20:41.892Z,69.62
2023-05-20T09:25:43.822Z,70.21
2023-05-20T09:30:49.050Z,68.69
2023-05-20T09:35:51.200Z,69.11
2023-05-20T09:40:53.033Z,66.11
2023-05-20T09:45:56.358Z,64.29
2023-05-20T09:50:58.614Z,66.67
2023-05-20T09:56:00.814Z,66.83
2023-05-20T10:01:04.188Z,67.02
2023-05-20T10:06:21.935Z,65.51
2023-05-20T10:11:34.592Z,67.04
2023-05-20T10:16:54.143Z,66.62
2023-05-20T10:22:01.357Z,64.69
2023-05-20T10:27:05.009Z,63.34
2023-05-20T10:32:08.697Z,60.32
2023-05-20T10:37:23.345Z,61.77
2023-05-20T10:42:29.166Z,62.96
2023-05-20T10:47:32.672Z,60.73
2023-05-20T10:52:36.765Z,61.38
2023-05-20T10:57:38.596Z,60.09
2023-05-20T11:02:41.927Z,61.47
2023-05-20T11:07:44.225Z,60.31
2023-05-20T11:12:46.391Z,57.88
2023-05-20T11:17:57.354Z,54.88
2023-05-20T11:22:59.423Z,54.40
2023-05-20T11:28:01.802Z,52.70
2023-05-20T11:33:05.391Z,54.71
2023-05-20T11:38:07.234Z,55.77
2023-05-20T11:43:11.742Z,55.12
2023-05-20T11:48:15.459Z,54.98
2023-05-20T11:53:18.640Z,56.45
2023-05-20T11:58:22.510Z,60.99
2023-05-20T12:03:26.121Z,57.87
2023-05-20T12:08:28.182Z,58.19
2023-05-20T12:13:29.914Z,56.24
2023-05-20T12:18:33.117Z,56.09
2023-05-20T12:23:35.527Z,57.86
2023-05-20T12:28:37.578Z,59.34
2023-05-20T12:33:40.709Z,56.91
2023-05-20T12:38:43.069Z,55.66
2023-05-20T12:43:45.114Z,54.24
2023-05-20T12:55:25.570Z,54.37
2023-05-20T13:00:27.562Z,55.04
2023-05-20T13:05:29.669Z,56.49
2023-05-20T13:10:34.129Z,57.08
2023-05-20T13:15:36.060Z,56.10
2023-05-20T13:20:38.426Z,57.72
2023-05-20T13:25:41.726Z,55.99
2023-05-20T13:30:44.277Z,56.84
2023-05-20T13:35:46.074Z,56.00
2023-05-20T13:40:49.890Z,55.89
2023-05-20T13:45:52.311Z,58.00
2023-05-20T13:50:54.311Z,57.29
2023-05-20T13:55:58.124Z,57.32
2023-05-20T14:01:00.361Z,55.62
2023-05-20T14:06:02.860Z,53.50
2023-05-20T14:11:06.044Z,56.54
2023-05-20T14:16:08.373Z,56.67
2023-05-20T14:21:11.732Z,55.14
2023-05-20T14:26:14.929Z,54.61
2023-05-20T14:31:16.782Z,55.17
2023-05-20T14:36:18.517Z,54.02
2023-05-20T14:41:22.133Z,54.38
2023-05-20T14:46:24.001Z,54.96
2023-05-20T14:51:26.624Z,53.26
2023-05-20T14:56:29.846Z,54.27
2023-05-20T15:01:32.002Z,51.92
2023-05-20T15:06:34.006Z,53.84
2023-05-20T15:11:37.495Z,54.35
2023-05-20T15:16:39.270Z,53.76
2023-05-20T15:21:41.462Z,54.41
2023-05-20T15:26:44.946Z,53.97
2023-05-20T15:31:46.669Z,52.93
2023-05-20T15:36:48.405Z,53.71
2023-05-20T15:41:52.021Z,54.09
2023-05-20T15:46:53.795Z,51.94
2023-05-20T15:52:02.392Z,50.98
2023-05-20T15:57:06.991Z,51.80
2023-05-20T16:02:09.014Z,51.19
2023-05-20T16:07:10.780Z,52.88
2023-05-20T16:12:13.948Z,53.28
2023-05-20T16:17:15.797Z,54.16
2023-05-20T16:22:18.542Z,53.06
2023-05-20T16:27:22.353Z,54.01
2023-05-20T16:32:24.529Z,53.31
2023-05-20T16:37:26.583Z,55.13
2023-05-20T16:42:29.687Z,54.02
2023-05-20T16:47:31.784Z,55.51
2023-05-20T16:52:34.437Z,55.92
2023-05-20T16:57:38.025Z,55.15
2023-05-20T17:02:40.431Z,55.38
2023-05-20T17:07:42.256Z,56.03
2023-05-20T17:12:45.422Z,57.10
2023-05-20T17:17:47.154Z,57.47
2023-05-20T17:22:49.311Z,56.59
2023-05-20T17:27:52.398Z,56.41
2023-05-20T17:32:54.454Z,57.94
2023-05-20T17:37:56.708Z,58.40
2023-05-20T17:43:00.230Z,59.47
2023-05-20T17:48:02.060Z,59.76
2023-05-20T17:53:04.187Z,60.21
2023-05-20T17:58:07.723Z,60.23
2023-05-20T18:03:10.514Z,58.96
2023-05-20T18:08:12.804Z,59.68
2023-05-20T18:13:16.366Z,60.69
2023-05-20T18:18:18.641Z,61.28
2023-05-20T18:23:20.753Z,61.42
2023-05-20T18:28:24.385Z,61.99
2023-05-20T18:33:26.495Z,61.95
2023-05-20T18:38:28.643Z,62.53
2023-05-20T18:43:32.179Z,63.40
2023-05-20T18:48:33.994Z,64.35
2023-05-20T18:53:36.505Z,64.79
2023-05-20T18:58:40.091Z,64.95
2023-05-20T19:03:42.411Z,65.19
2023-05-20T19:08:44.373Z,65.68
2023-05-20T19:13:47.694Z,65.99
2023-05-20T19:18:49.717Z,66.28
2023-05-20T19:23:51.617Z,66.73
2023-05-20T19:28:55.105Z,67.12
2023-05-20T19:33:57.545Z,67.18
2023-05-20T19:38:59.283Z,67.68
2023-05-20T19:44:02.828Z,68.46
2023-05-20T19:49:05.050Z,67.99
2023-05-20T19:54:07.294Z,68.24
2023-05-20T19:59:10.663Z,68.82
2023-05-20T20:04:12.691Z,68.92
2023-05-20T20:09:15.081Z,69.37
2023-05-20T20:14:18.234Z,69.62
2023-05-20T20:19:20.030Z,70.00
2023-05-20T20:24:22.145Z,70.25
2023-05-20T20:29:25.833Z,71.22
2023-05-20T20:34:28.232Z,72.54
2023-05-20T20:39:29.953Z,72.60
2023-05-20T20:44:33.518Z,72.41
2023-05-20T20:49:35.471Z,73.83
2023-05-20T20:54:38.732Z,74.28
2023-05-20T20:59:43.252Z,75.45
2023-05-20T21:04:45.197Z,76.14
2023-05-20T21:09:47.265Z,76.45
2023-05-20T21:14:50.394Z,76.98
2023-05-20T21:19:52.488Z,77.17
2023-05-20T21:24:54.550Z,77.37
2023-05-20T21:29:58.243Z,77.58
2023-05-20T21:35:00.360Z,77.67
2023-05-20T21:40:02.511Z,77.30
2023-05-20T21:45:07.578Z,78.21
2023-05-20T21:50:10.715Z,77.96
2023-05-20T21:55:12.842Z,78.53
2023-05-20T22:00:17.009Z,78.32
2023-05-20T22:05:19.450Z,78.57
2023-05-20T22:10:23.351Z,78.92
2023-05-20T22:15:27.215Z,79.38
2023-05-20T22:20:29.727Z,80.02
2023-05-20T22:25:31.728Z,80.32
2023-05-20T22:30:35.633Z,80.03
2023-05-20T22:35:38.265Z,80.40
2023-05-20T22:40:40.192Z,81.11
2023-05-20T22:45:43.534Z,81.74
2023-05-20T22:50:45.741Z,82.24
2023-05-20T22:55:47.516Z,83.15
2023-05-20T23:00:51.239Z,83.03
2023-05-20T23:05:53.749Z,83.70
2023-05-20T23:10:56.334Z,84.35
2023-05-20T23:15:59.709Z,84.97
2023-05-20T23:21:01.864Z,85.10
2023-05-20T23:26:04.482Z,86.12
2023-05-20T23:31:08.185Z,86.20
2023-05-20T23:36:10.269Z,86.65
2023-05-20T23:41:12.389Z,86.76
2023-05-20T23:46:15.904Z,87.36
2023-05-20T23:51:17.736Z,88.59
2023-05-20T23:56:19.909Z,88.69
